logo
Search for airport 
image banner adimage banner adimage banner ad
image banner ad

YCARN - Carnavon

Located in Upper Warrego, Australia

ICAO - , IATA -

Data provided by Airmate  

General information

Coordinates: S24°48'41" E147°44'49"
Elevation is 2465 feet MSL.
Magnetic variation is 9° East
View others Airports in Queensland

Operational data

Special qualification required
Current time UTC:
Current local time:
Weather at : - ( 0 km )
METAR: PAKX 250435Z AUTO 22003KT 10SM OVC090 13/08 A2996 RMK AO2
View NOTAMs / SUP AIP / TFR affecting this airport [VIEW]
Communications frequencies: [VIEW]

Runways:

RWY identifierQFULength (ft)Width (ft)SurfaceLDA (ft)
25254°345365DIRT
0774°345365DIRT

Airport contact information

Address: Upper Warrego Australia

Satellite view of YCARN